Terminal Aerodrome Forecast
Issued by NWS

Home | Current Version | Previous Version | Text Only | Print | Product List | Glossary On
Versions: 1 2 3 4 5 6 7 8 9 10 11 12 13 14 15 16
000
FTUS43 KMQT 312320
TAFSAW
TAF
KSAW 312320Z 0100/0124 21008KT P6SM SKC
     FM011000 22006KT 6SM BR FEW150
     FM011200 21006KT 5SM BR FEW090
     FM011300 21007KT P6SM SCT090=

USA.gov is the U.S. government's official web portal to all federal, state and local government web resources and services.